Time;durP1;ratioP1;P1;durP2;ratioP2;P2;SDS_P1;SDS_P2;PMS_P1;PMS_P2;Temp;Humidity;BMP_temperature;BMP_pressure;BME280_temperature;BME280_humidity;BME280_pressure;Samples;Min_cycle;Max_cycle;Signal;HPM_P1;HPM_P2
2021/08/12 05:31:33;;;;;;;13.00;6.72;;;;;;;14.02;90.80;96752.97;6100030;23;20034;-96
2021/08/12 05:33:59;;;;;;;13.43;7.57;;;;;;;13.91;90.22;96718.03;6074120;23;20108;-96
2021/08/12 05:36:24;;;;;;;11.15;6.55;;;;;;;14.00;90.41;96723.38;6074088;23;20061;-93
2021/08/12 05:38:50;;;;;;;11.88;6.90;;;;;;;14.33;90.57;96764.16;6074064;23;20457;-94
2021/08/12 05:41:16;;;;;;;14.52;6.90;;;;;;;13.72;90.54;96670.28;6074114;23;20073;-95
2021/08/12 05:43:42;;;;;;;14.45;7.22;;;;;;;14.34;90.57;96752.00;6074055;23;20045;-93
2021/08/12 05:46:07;;;;;;;9.95;6.88;;;;;;;14.26;89.65;96734.47;6074110;23;20090;-93
2021/08/12 05:48:33;;;;;;;12.70;7.30;;;;;;;14.42;89.14;96738.69;6074087;23;20006;-94
2021/08/12 05:50:59;;;;;;;11.68;6.90;;;;;;;14.45;88.81;96732.28;6074263;23;20006;-96
2021/08/12 05:53:27;;;;;;;14.00;7.45;;;;;;;14.36;89.20;96716.75;6073998;23;20093;-94
2021/08/12 05:55:53;;;;;;;9.65;7.38;;;;;;;14.79;90.06;96777.28;6073857;23;20013;-95
2021/08/12 05:58:19;;;;;;;13.23;6.70;;;;;;;14.68;90.74;96761.47;6074226;23;20006;-95
2021/08/12 06:00:44;;;;;;;14.68;7.18;;;;;;;14.48;89.06;96719.66;6074062;23;20002;-96
2021/08/12 06:03:12;;;;;;;12.00;6.90;;;;;;;14.92;88.47;96783.19;6074071;23;20010;-95
2021/08/12 06:05:39;;;;;;;10.35;6.32;;;;;;;14.81;89.51;96761.16;6073737;23;20006;-96
2021/08/12 06:08:07;;;;;;;9.00;6.40;;;;;;;15.02;88.46;96777.59;6074106;23;20010;-95
2021/08/12 06:10:34;;;;;;;10.38;6.78;;;;;;;14.80;89.62;96745.22;6074137;23;20149;-93
2021/08/12 06:13:00;;;;;;;10.23;6.30;;;;;;;14.84;89.38;96741.06;6073991;23;20011;-95
2021/08/12 06:15:27;;;;;;;14.38;6.72;;;;;;;14.92;89.14;96744.16;6072698;23;20073;-95
2021/08/12 06:17:53;;;;;;;9.50;6.47;;;;;;;14.86;88.99;96727.69;6073444;23;20030;-94
2021/08/12 06:20:19;;;;;;;11.57;6.63;;;;;;;14.85;89.39;96711.75;6073785;23;20057;-94
2021/08/12 06:22:46;;;;;;;8.95;6.90;;;;;;;14.59;85.55;96667.91;6073736;23;20091;-94
2021/08/12 06:25:12;;;;;;;8.07;6.07;;;;;;;15.45;85.22;96778.66;6073331;23;20073;-95
2021/08/12 06:27:37;;;;;;;7.88;6.38;;;;;;;15.33;85.68;96755.09;6073544;23;20002;-93
2021/08/12 06:30:06;;;;;;;9.07;6.13;;;;;;;15.58;87.14;96779.03;6078912;23;20030;-93
2021/08/12 06:32:32;;;;;;;12.32;6.80;;;;;;;15.42;87.21;96744.03;6097557;23;20419;-94
2021/08/12 06:34:57;;;;;;;8.77;6.45;;;;;;;15.38;87.62;96730.53;6097333;23;20010;-93
2021/08/12 06:37:24;;;;;;;9.70;6.60;;;;;;;15.64;87.03;96759.97;6097098;23;20006;-93
2021/08/12 06:39:50;;;;;;;10.88;6.68;;;;;;;15.58;86.80;96743.44;6097138;23;20006;-96
2021/08/12 06:42:15;;;;;;;11.48;6.35;;;;;;;15.69;86.32;96738.13;6097686;23;20010;-96
2021/08/12 06:44:41;;;;;;;11.20;6.90;;;;;;;15.60;87.27;96715.59;6097346;23;20012;-94
2021/08/12 06:47:07;;;;;;;11.85;6.88;;;;;;;15.87;84.82;96747.25;6097552;23;20002;-96
2021/08/12 06:49:32;;;;;;;11.77;7.38;;;;;;;15.64;86.43;96702.47;6097540;23;20017;-95
2021/08/12 06:51:58;;;;;;;9.68;7.40;;;;;;;15.87;86.10;96731.59;6097493;23;20007;-95
2021/08/12 06:54:24;;;;;;;10.85;7.15;;;;;;;15.85;84.70;96719.59;6097486;23;20006;-95
2021/08/12 06:56:49;;;;;;;12.13;6.60;;;;;;;15.93;84.31;96721.44;6097708;23;20010;-95
2021/08/12 06:59:15;;;;;;;9.02;6.20;;;;;;;16.06;83.24;96723.78;6097326;23;20471;-94
2021/08/12 07:01:41;;;;;;;12.05;6.30;;;;;;;16.45;82.23;96758.97;6097099;23;20066;-93
2021/08/12 07:04:06;;;;;;;8.05;6.55;;;;;;;16.45;82.23;96758.97;6097010;23;20459;-93
2021/08/12 07:06:32;;;;;;;10.40;6.30;;;;;;;16.45;82.23;96758.97;6097157;23;20002;-92
2021/08/12 07:08:57;;;;;;;10.98;6.35;;;;;;;16.58;100.00;96753.09;6096782;23;20022;-93
2021/08/12 07:11:23;;;;;;;11.73;6.45;;;;;;;16.78;81.28;96758.50;6098653;23;20006;-96
2021/08/12 07:13:49;;;;;;;7.50;5.10;;;;;;;16.78;81.28;96758.50;6097424;23;20006;-96
2021/08/12 07:16:16;;;;;;;8.32;5.25;;;;;;;16.78;81.28;96758.50;6098120;23;20017;-96
2021/08/12 07:18:45;;;;;;;7.38;5.25;;;;;;;16.78;81.28;96758.50;6098116;23;20006;-96
2021/08/12 07:21:20;;;;;;;8.07;5.38;;;;;;;17.21;75.59;96783.91;6097358;23;20034;-95
2021/08/12 07:23:46;;;;;;;11.95;5.13;;;;;;;17.31;76.57;96781.72;6097357;23;20006;-96
2021/08/12 07:26:13;;;;;;;7.95;4.95;;;;;;;17.31;76.57;96781.72;6097164;23;20064;-96
2021/08/12 07:28:48;;;;;;;9.95;5.90;;;;;;;17.31;76.57;96781.72;6097240;23;20344;-96
2021/08/12 07:31:15;;;;;;;11.18;5.85;;;;;;;17.45;74.97;96769.03;6097517;23;20474;-96
2021/08/12 07:33:44;;;;;;;8.30;5.32;;;;;;;17.75;75.49;96786.66;6098276;23;20010;-96
2021/08/12 07:36:10;;;;;;;6.88;4.75;;;;;;;17.83;73.28;96786.16;6097096;23;20010;-95
2021/08/12 07:38:35;;;;;;;8.20;5.18;;;;;;;17.83;73.28;96786.16;6100886;23;20010;-96
2021/08/12 07:41:01;;;;;;;6.45;4.25;;;;;;;17.83;73.28;96786.16;6097538;23;20010;-94
2021/08/12 07:43:27;;;;;;;7.10;5.13;;;;;;;18.13;73.62;96791.97;6097320;23;20067;-95
2021/08/12 07:45:53;;;;;;;7.15;4.70;;;;;;;18.13;73.62;96791.97;6097100;23;20009;-95
2021/08/12 07:48:19;;;;;;;9.82;4.80;;;;;;;18.13;73.62;96791.97;6097240;23;20002;-96
2021/08/12 07:50:46;;;;;;;8.45;4.72;;;;;;;18.13;73.62;96791.97;6097103;23;20022;-95
2021/08/12 07:53:12;;;;;;;7.50;5.10;;;;;;;18.13;73.62;96791.97;6098441;23;20470;-96
2021/08/12 07:55:38;;;;;;;8.73;4.75;;;;;;;18.13;73.62;96791.97;6097043;23;20006;-96
2021/08/12 07:58:03;;;;;;;7.63;4.65;;;;;;;18.32;70.36;96740.75;6097172;23;20078;-94
2021/08/12 08:00:29;;;;;;;8.55;4.25;;;;;;;18.35;67.82;96742.50;6097664;23;20007;-95
2021/08/12 08:02:55;;;;;;;5.13;3.75;;;;;;;18.69;65.22;96784.50;6097343;23;20007;-96
2021/08/12 08:05:23;;;;;;;5.55;4.30;;;;;;;18.44;66.19;96741.50;6097058;23;20010;-96
2021/08/12 08:07:50;;;;;;;7.70;4.25;;;;;;;18.75;67.54;96774.25;6097065;23;20006;-95
2021/08/12 08:10:17;;;;;;;6.78;4.55;;;;;;;19.05;68.56;96796.44;6097163;23;20010;-96
2021/08/12 08:12:42;;;;;;;7.70;4.28;;;;;;;18.83;66.26;96760.72;6097256;23;20350;-95
2021/08/12 08:15:10;;;;;;;7.38;3.58;;;;;;;19.02;63.59;96786.47;6096860;23;20038;-96
2021/08/12 08:17:35;;;;;;;6.07;3.60;;;;;;;18.87;64.70;96758.47;6096585;23;20010;-95
2021/08/12 08:20:02;;;;;;;6.10;3.35;;;;;;;19.04;60.43;96794.22;6096720;23;20041;-94
2021/08/12 08:22:27;;;;;;;5.18;3.03;;;;;;;19.17;61.10;96801.94;6097248;23;20065;-96
2021/08/12 08:24:53;;;;;;;4.93;3.35;;;;;;;18.92;61.42;96743.22;6097190;23;20007;-96
2021/08/12 08:27:18;;;;;;;4.00;3.50;;;;;;;19.21;61.75;96767.38;6097237;23;20332;-96
2021/08/12 08:29:44;;;;;;;4.00;3.20;;;;;;;19.20;61.16;96756.88;6097811;23;20309;-96
2021/08/12 08:32:09;;;;;;;4.53;3.40;;;;;;;19.48;60.05;96789.81;6098964;23;20085;-96
2021/08/12 08:34:35;;;;;;;4.25;3.47;;;;;;;19.24;62.32;96738.13;6099043;23;20026;-96
2021/08/12 08:37:00;;;;;;;5.85;3.10;;;;;;;19.42;58.08;96753.31;6098797;23;20014;-96
2021/08/12 08:39:26;;;;;;;3.85;3.05;;;;;;;19.46;59.32;96753.78;6099269;23;20012;-96
2021/08/12 08:41:53;;;;;;;3.75;3.30;;;;;;;19.57;58.84;96751.72;6099648;23;20011;-96
2021/08/12 08:44:21;;;;;;;4.20;3.25;;;;;;;19.47;60.36;96725.00;6099653;23;20010;-96
2021/08/12 08:46:48;;;;;;;3.45;2.88;;;;;;;19.51;56.36;96725.47;6098891;23;20014;-96
2021/08/12 08:49:17;;;;;;;4.65;3.08;;;;;;;19.70;58.80;96736.66;6098865;23;20049;-96
2021/08/12 08:51:44;;;;;;;4.93;3.08;;;;;;;19.93;58.17;96753.81;6100251;23;20011;-96
2021/08/12 08:54:12;;;;;;;5.40;2.95;;;;;;;20.05;57.94;96749.72;6100340;23;20061;-96
2021/08/12 08:56:40;;;;;;;4.40;3.03;;;;;;;20.26;58.20;96777.66;6099984;23;20018;-96
2021/08/12 08:59:08;;;;;;;4.78;3.28;;;;;;;19.99;58.41;96743.50;6099348;23;20067;-96
2021/08/12 09:01:35;;;;;;;5.40;2.90;;;;;;;19.41;57.18;96669.19;6098662;23;20017;-95
2021/08/12 09:04:01;;;;;;;5.63;3.30;;;;;;;19.55;57.45;96695.66;6098765;23;20101;-95
2021/08/12 09:06:26;;;;;;;3.70;3.00;;;;;;;20.12;55.10;96766.44;6099262;23;20030;-95
2021/08/12 09:12:14;;;;;;;4.95;3.08;;;;;;;20.27;56.87;96774.38;6099974;23;20145;-96
2021/08/12 09:14:41;;;;;;;3.20;2.53;;;;;;;20.29;53.71;96754.56;6098932;23;20042;-96
2021/08/12 09:17:19;;;;;;;5.20;2.90;;;;;;;20.55;53.93;96795.50;6098222;23;20002;-96
2021/08/12 09:20:05;;;;;;;3.95;3.17;;;;;;;20.61;54.31;96788.69;6098014;23;20368;-93
2021/08/12 09:22:56;;;;;;;5.93;3.20;;;;;;;20.77;56.37;96798.06;6097594;23;20145;-94
2021/08/12 09:25:29;;;;;;;3.83;3.15;;;;;;;20.61;56.15;96801.72;6098382;23;20017;-93
2021/08/12 09:28:16;;;;;;;4.10;2.80;;;;;;;20.57;62.91;96793.75;6098086;23;20006;-96
2021/08/12 09:30:44;;;;;;;4.65;3.15;;;;;;;20.36;55.76;96765.03;6098049;23;20014;-94
2021/08/12 09:33:14;;;;;;;4.20;3.10;;;;;;;20.53;56.49;96771.19;6097918;23;20093;-94
2021/08/12 09:35:40;;;;;;;3.20;2.90;;;;;;;20.80;54.95;96804.56;6099179;23;20042;-93
2021/08/12 09:38:14;;;;;;;5.45;3.22;;;;;;;20.87;54.95;96779.16;6098378;23;20014;-94
2021/08/12 09:40:40;;;;;;;6.35;3.20;;;;;;;21.21;54.22;96792.63;6097951;23;20010;-94
2021/08/12 09:43:07;;;;;;;4.75;3.10;;;;;;;21.09;54.84;96794.75;6098139;23;20094;-93
2021/08/12 09:45:34;;;;;;;4.60;3.08;;;;;;;20.91;53.45;96780.38;6098200;23;20002;-93
2021/08/12 09:48:09;;;;;;;4.45;3.53;;;;;;;20.93;55.98;96790.88;6097935;23;20010;-96
2021/08/12 09:50:35;;;;;;;6.78;3.20;;;;;;;20.77;53.68;96784.25;6098194;23;20016;-96
2021/08/12 09:53:02;;;;;;;5.32;3.50;;;;;;;20.49;56.68;96740.38;6101782;23;20034;-96
2021/08/12 09:55:31;;;;;;;4.47;3.33;;;;;;;20.71;53.72;96738.69;6108473;23;20026;-96
2021/08/12 09:58:08;;;;;;;4.22;3.22;;;;;;;21.33;50.99;96794.03;6114878;23;20388;-96
2021/08/12 10:00:46;;;;;;;3.95;3.25;;;;;;;20.77;51.36;96681.41;6109811;23;20006;-96
2021/08/12 10:03:23;;;;;;;5.60;3.10;;;;;;;20.65;46.67;96686.31;6111498;23;20085;-96
2021/08/12 10:05:50;;;;;;;4.22;3.28;;;;;;;20.58;52.82;96684.88;6117053;23;20005;-96
2021/08/12 10:08:39;;;;;;;5.55;3.40;;;;;;;21.00;51.64;96751.69;6115242;23;20010;-96
2021/08/12 10:29:59;;;;;;;7.72;3.05;;;;;;;21.97;48.71;96752.75;6123674;23;20018;-90
2021/08/12 10:32:27;;;;;;;4.40;3.45;;;;;;;22.46;49.63;96785.75;6111430;23;20339;-96
2021/08/12 10:34:53;;;;;;;4.85;3.38;;;;;;;22.65;51.83;96786.44;6102966;23;20367;-92
2021/08/12 10:37:18;;;;;;;6.35;3.20;;;;;;;22.71;48.78;96773.25;6102310;23;20013;-94
2021/08/12 10:39:45;;;;;;;3.90;3.10;;;;;;;22.49;46.44;96773.63;6111074;23;20026;-96
2021/08/12 10:42:12;;;;;;;4.25;3.10;;;;;;;22.14;45.24;96741.47;6103337;23;20006;-96
2021/08/12 10:44:38;;;;;;;5.32;3.25;;;;;;;21.95;48.24;96752.56;6108819;23;20044;-96
2021/08/12 10:47:03;;;;;;;4.55;2.90;;;;;;;22.18;46.30;96756.50;6109098;23;20080;-93
2021/08/12 10:49:31;;;;;;;3.83;2.65;;;;;;;22.06;44.37;96733.03;6102450;23;20006;-94
2021/08/12 10:52:08;;;;;;;4.05;3.30;;;;;;;22.66;47.47;96774.09;6102271;23;20037;-93
2021/08/12 10:54:36;;;;;;;8.88;5.85;;;;;;;22.73;47.61;96758.88;6102028;23;20006;-94
2021/08/12 10:57:22;;;;;;;6.35;5.05;;;;;;;23.08;46.06;96762.56;6102312;23;20006;-93
2021/08/12 10:59:50;;;;;;;13.23;6.25;;;;;;;23.51;51.38;96776.06;6102336;23;20502;-94
2021/08/12 11:02:28;;;;;;;9.43;5.22;;;;;;;23.72;51.16;96782.47;6102441;23;20446;-94
2021/08/12 11:04:55;;;;;;;8.85;4.75;;;;;;;23.72;49.48;96738.13;6097849;23;20006;-93
2021/08/12 11:07:43;;;;;;;7.40;5.47;;;;;;;24.11;48.07;96769.03;6101787;23;20028;-93
2021/08/12 11:10:10;;;;;;;5.57;4.00;;;;;;;24.07;49.94;96743.66;6098538;23;20072;-94
2021/08/12 11:12:57;;;;;;;5.72;2.85;;;;;;;24.37;41.20;96768.19;6101192;23;20045;-95
2021/08/12 11:15:40;;;;;;;7.90;5.10;;;;;;;24.47;49.62;96767.19;6105696;23;20021;-93
2021/08/12 11:18:14;;;;;;;9.20;3.90;;;;;;;24.37;43.02;96743.97;6106822;23;20014;-94
2021/08/12 11:20:46;;;;;;;5.07;3.15;;;;;;;24.54;49.17;96752.63;6106127;23;20002;-93
2021/08/12 11:23:17;;;;;;;4.38;2.50;;;;;;;24.80;42.84;96764.84;6107972;23;20497;-93
2021/08/12 11:25:57;;;;;;;3.40;2.40;;;;;;;24.93;39.55;96766.78;6109312;23;20012;-93
2021/08/12 11:28:50;;;;;;;6.27;2.80;;;;;;;25.04;38.12;96761.72;6101691;23;20446;-94
2021/08/12 11:31:23;;;;;;;6.45;2.55;;;;;;;25.18;38.62;96759.59;6093725;23;20439;-93
2021/08/12 11:33:50;;;;;;;5.18;2.65;;;;;;;25.31;40.35;96764.31;6102644;23;20038;-93
2021/08/12 11:36:20;;;;;;;3.22;2.47;;;;;;;25.45;37.38;96765.66;6102694;23;20010;-92
2021/08/12 11:39:05;;;;;;;2.75;2.22;;;;;;;25.55;37.61;96763.09;6103041;23;20017;-94
2021/08/12 11:41:39;;;;;;;3.90;2.60;;;;;;;25.50;38.85;96739.72;6101777;23;20006;-94
2021/08/12 11:44:16;;;;;;;3.50;2.58;;;;;;;25.78;38.94;96766.78;6102321;23;20010;-93
2021/08/12 11:46:43;;;;;;;4.03;2.70;;;;;;;25.67;38.55;96739.25;6102690;23;20084;-93
2021/08/12 11:49:14;;;;;;;4.55;2.40;;;;;;;25.75;38.05;96742.09;6106517;23;20041;-93
2021/08/12 11:51:40;;;;;;;4.53;2.45;;;;;;;25.81;37.99;96726.72;6108672;23;20006;-94
2021/08/12 11:54:05;;;;;;;4.63;2.38;;;;;;;25.96;35.24;96748.28;6107290;23;20020;-95
2021/08/12 11:56:32;;;;;;;2.80;2.30;;;;;;;25.95;32.46;96746.78;6105072;23;20005;-94
2021/08/12 11:59:00;;;;;;;3.92;2.35;;;;;;;26.02;37.28;96736.97;6098312;23;20002;-95
2021/08/12 12:01:28;;;;;;;16.00;3.58;;;;;;;25.99;36.39;96740.84;6107837;23;20021;-95
2021/08/12 12:04:01;;;;;;;4.47;2.75;;;;;;;25.82;40.95;96741.38;6106677;23;20006;-94
2021/08/12 12:06:41;;;;;;;6.25;2.75;;;;;;;25.85;41.35;96724.31;6103962;23;20029;-95
2021/08/12 12:09:36;;;;;;;6.35;2.90;;;;;;;25.96;39.45;96759.41;6105423;23;20021;-93
2021/08/12 12:12:09;;;;;;;3.38;2.53;;;;;;;25.80;33.98;96725.22;6104671;23;20001;-93
2021/08/12 12:14:40;;;;;;;2.78;2.30;;;;;;;26.00;32.14;96740.31;6103413;23;20041;-95
2021/08/12 12:17:18;;;;;;;2.65;2.40;;;;;;;26.11;32.78;96745.53;6102660;23;20014;-93
2021/08/12 12:20:05;;;;;;;4.22;2.53;;;;;;;26.09;37.84;96750.88;6102355;23;20443;-94
2021/08/12 12:22:31;;;;;;;3.78;2.30;;;;;;;26.13;34.08;96731.78;6128651;23;20006;-94
2021/08/12 12:25:05;;;;;;;2.63;2.40;;;;;;;26.30;33.93;96750.72;6103243;23;20017;-94
2021/08/12 12:27:31;;;;;;;4.93;2.40;;;;;;;26.08;36.08;96718.06;6102712;23;20446;-95
2021/08/12 12:30:11;;;;;;;3.20;2.40;;;;;;;26.28;37.65;96747.78;6102740;23;20014;-95
2021/08/12 12:32:38;;;;;;;4.07;2.40;;;;;;;26.17;33.40;96714.00;6103912;23;20031;-95
2021/08/12 12:35:06;;;;;;;3.15;2.20;;;;;;;26.53;33.87;96744.50;6102986;23;20432;-96
2021/08/12 12:37:33;;;;;;;4.15;2.33;;;;;;;26.53;33.17;96739.66;6102447;23;20013;-96
2021/08/12 12:39:59;;;;;;;3.15;2.25;;;;;;;26.42;32.83;96725.34;6102329;23;20006;-93
2021/08/12 12:42:25;;;;;;;3.42;2.50;;;;;;;26.44;34.72;96706.81;6101093;23;20068;-95
2021/08/12 12:44:57;;;;;;;3.05;2.60;;;;;;;26.78;35.05;96745.41;6101856;23;20017;-95
2021/08/12 12:47:27;;;;;;;2.92;2.20;;;;;;;26.54;32.82;96735.56;6102619;23;20002;-94
2021/08/12 12:50:23;;;;;;;2.80;2.42;;;;;;;26.60;31.95;96729.81;6102513;23;20006;-95
2021/08/12 12:52:56;;;;;;;3.20;2.42;;;;;;;26.68;35.25;96713.84;6103623;23;20012;-96
2021/08/12 12:55:24;;;;;;;3.22;2.20;;;;;;;26.58;31.28;96701.78;6104105;23;20006;-95
2021/08/12 12:57:50;;;;;;;3.08;2.25;;;;;;;26.60;32.04;96713.13;6106796;23;20009;-96
2021/08/12 13:00:28;;;;;;;3.92;2.42;;;;;;;26.63;33.88;96717.56;6133062;23;20010;-96
2021/08/12 13:02:55;;;;;;;2.40;2.20;;;;;;;26.62;32.41;96710.50;6103005;23;20029;-95
2021/08/12 13:05:22;;;;;;;3.10;2.28;;;;;;;26.65;33.96;96703.84;6102439;23;20026;-96
2021/08/12 13:11:16;;;;;;;4.22;2.38;;;;;;;26.69;33.43;96714.59;6129193;23;20060;-96
2021/08/12 13:13:44;;;;;;;4.30;2.30;;;;;;;26.73;33.09;96718.47;6103105;23;20013;-96
2021/08/12 13:16:12;;;;;;;3.78;2.17;;;;;;;26.65;33.64;96723.31;6103139;23;20012;-96
2021/08/12 13:18:55;;;;;;;3.28;2.35;;;;;;;26.35;31.24;96669.09;6104644;23;20010;-96
2021/08/12 13:21:35;;;;;;;2.80;2.13;;;;;;;26.69;31.78;96709.03;6105043;23;20006;-96
2021/08/12 13:24:10;;;;;;;3.42;2.60;;;;;;;26.68;37.82;96715.88;6104941;23;20061;-96
2021/08/12 13:26:41;;;;;;;2.92;2.50;;;;;;;26.64;30.90;96678.03;6108911;23;20049;-96
2021/08/12 13:29:25;;;;;;;3.22;2.30;;;;;;;26.81;35.20;96713.66;6107195;23;20032;-95
2021/08/12 13:32:02;;;;;;;2.95;2.33;;;;;;;26.49;35.20;96691.22;6113767;23;20060;-96
2021/08/12 13:34:27;;;;;;;5.55;2.25;;;;;;;26.53;32.09;96686.78;6107609;23;20002;-96
2021/08/12 13:36:56;;;;;;;3.47;2.63;;;;;;;26.28;33.83;96653.16;6107620;23;20009;-96
2021/08/12 13:39:22;;;;;;;3.17;2.30;;;;;;;26.38;32.51;96678.38;6109574;23;20010;-96
2021/08/12 13:42:00;;;;;;;2.50;2.00;;;;;;;26.06;33.64;96646.28;6112886;23;20028;-97
2021/08/12 13:44:31;;;;;;;3.03;2.28;;;;;;;25.77;33.37;96592.84;6111598;23;20061;-96
2021/08/12 13:46:59;;;;;;;4.70;2.30;;;;;;;26.44;31.81;96637.22;6109710;23;20032;-96
2021/08/12 13:49:25;;;;;;;3.70;2.58;;;;;;;26.64;31.26;96638.31;6108760;23;20335;-96
2021/08/12 13:51:53;;;;;;;2.55;2.35;;;;;;;26.68;29.58;96601.72;6108716;23;20009;-96
2021/08/12 13:54:22;;;;;;;3.22;2.50;;;;;;;27.59;32.36;96712.91;6113981;23;20006;-96
2021/08/12 13:56:48;;;;;;;3.08;2.78;;;;;;;27.18;33.62;96664.00;6093463;23;20045;-96
2021/08/12 13:59:20;;;;;;;8.68;3.13;;;;;;;27.06;32.78;96674.03;6118202;23;20039;-96
2021/08/12 14:01:49;;;;;;;2.63;2.25;;;;;;;26.79;31.84;96623.59;6117537;23;20088;-96
2021/08/12 14:04:17;;;;;;;3.05;2.30;;;;;;;26.99;35.38;96669.97;6137374;23;20010;-96
2021/08/12 14:06:43;;;;;;;3.78;2.45;;;;;;;27.06;35.58;96677.56;6112521;23;20457;-96
2021/08/12 14:09:08;;;;;;;7.22;2.90;;;;;;;26.58;33.84;96601.53;6110516;23;20006;-96
2021/08/12 14:11:35;;;;;;;3.35;2.20;;;;;;;26.63;31.36;96622.88;6110010;23;20057;-96
2021/08/12 14:14:06;;;;;;;2.75;2.30;;;;;;;27.18;32.07;96708.59;6112620;23;20012;-96
2021/08/12 14:16:33;;;;;;;4.15;2.28;;;;;;;26.61;32.39;96601.16;6112937;23;20006;-96
2021/08/12 14:22:20;;;;;;;2.55;2.35;;;;;;;26.74;35.06;96716.44;6131730;23;20012;-96
2021/08/12 14:24:46;;;;;;;5.07;2.50;;;;;;;26.42;35.26;96678.03;6109172;23;20010;-95
2021/08/12 14:27:12;;;;;;;5.93;2.60;;;;;;;26.22;37.72;96686.00;6103589;23;20090;-96
2021/08/12 14:29:37;;;;;;;2.50;2.20;;;;;;;26.01;39.89;96686.16;6104105;23;20021;-96
2021/08/12 14:32:03;;;;;;;3.25;2.63;;;;;;;25.92;34.10;96685.94;6103432;23;20010;-96
2021/08/12 14:34:29;;;;;;;4.40;2.50;;;;;;;26.11;34.44;96672.44;6103275;23;20395;-96
2021/08/12 14:36:55;;;;;;;2.95;2.47;;;;;;;26.05;35.64;96663.53;6103163;23;20006;-96
2021/08/12 14:39:21;;;;;;;5.88;2.60;;;;;;;25.76;38.22;96665.72;6103401;23;20005;-96
2021/08/12 14:41:47;;;;;;;8.07;2.95;;;;;;;26.04;39.46;96665.56;6102676;23;20016;-94
2021/08/12 14:44:13;;;;;;;7.55;2.75;;;;;;;26.26;39.83;96694.72;6103294;23;20005;-95
2021/08/12 14:46:39;;;;;;;36.70;5.07;;;;;;;26.20;42.31;96687.84;6102856;23;20427;-94
2021/08/12 14:49:05;;;;;;;7.72;3.38;;;;;;;26.24;40.80;96683.38;6102067;23;20079;-95
2021/08/12 14:51:30;;;;;;;5.78;2.80;;;;;;;26.83;39.04;96697.13;6101953;23;20431;-93
2021/08/12 14:53:56;;;;;;;13.55;2.83;;;;;;;27.60;38.35;96711.59;6102246;23;20096;-95
2021/08/12 14:56:22;;;;;;;18.17;3.08;;;;;;;26.98;36.05;96642.69;6101616;23;20002;-95
2021/08/12 14:58:48;;;;;;;5.47;3.03;;;;;;;27.44;36.57;96682.28;6102012;23;20006;-94
2021/08/12 15:01:13;;;;;;;11.98;2.90;;;;;;;28.10;35.18;96683.81;6101878;23;20025;-94
2021/08/12 15:03:39;;;;;;;3.83;2.72;;;;;;;28.47;32.90;96686.16;6101787;23;20031;-94
2021/08/12 15:06:05;;;;;;;18.15;3.85;;;;;;;28.65;34.77;96701.63;6102033;23;20002;-95
2021/08/12 15:08:30;;;;;;;3.97;2.65;;;;;;;29.10;31.83;96655.75;6102509;23;20010;-96
2021/08/12 15:10:56;;;;;;;5.88;2.60;;;;;;;28.99;33.24;96647.13;6105385;23;20006;-96
2021/08/12 15:13:21;;;;;;;5.85;2.65;;;;;;;28.05;35.87;96673.59;6102367;23;20063;-95
2021/08/12 15:15:47;;;;;;;3.10;2.40;;;;;;;27.25;36.47;96663.22;6102319;23;20033;-95
2021/08/12 15:18:13;;;;;;;6.15;2.80;;;;;;;26.72;39.99;96680.78;6102022;23;20104;-94
2021/08/12 15:20:39;;;;;;;6.20;2.75;;;;;;;26.82;38.69;96680.97;6102177;23;20002;-96
2021/08/12 15:23:06;;;;;;;3.92;2.47;;;;;;;27.55;37.10;96693.03;6102144;23;20006;-95
2021/08/12 15:25:31;;;;;;;6.60;2.50;;;;;;;28.17;36.76;96671.09;6100597;23;20006;-94
2021/08/12 15:27:57;;;;;;;9.85;3.78;;;;;;;28.31;36.51;96694.63;6101723;23;20020;-93
2021/08/12 15:30:23;;;;;;;13.40;2.83;;;;;;;28.56;37.09;96665.97;6101637;23;20092;-93
2021/08/12 15:32:48;;;;;;;4.50;2.78;;;;;;;29.16;36.53;96706.56;6127611;23;20002;-92
2021/08/12 15:35:14;;;;;;;4.00;2.47;;;;;;;29.11;34.89;96699.16;6102434;23;20005;-93
2021/08/12 15:37:39;;;;;;;4.55;2.78;;;;;;;28.82;33.59;96700.94;6101770;23;20367;-93
2021/08/12 15:40:06;;;;;;;3.58;2.35;;;;;;;28.46;36.15;96691.00;6102265;23;20098;-93
2021/08/12 15:42:31;;;;;;;3.60;2.30;;;;;;;27.66;38.45;96663.97;6099379;23;20427;-94
2021/08/12 15:45:01;;;;;;;3.28;2.22;;;;;;;27.41;37.35;96700.13;6102569;23;20006;-95
2021/08/12 15:47:26;;;;;;;;;;;;;;;27.11;38.31;96714.91;6106756;23;20021;-95
2021/08/12 15:49:52;;;;;;;3.55;2.70;;;;;;;27.02;39.73;96716.22;6105951;23;19909;-92
2021/08/12 15:52:17;;;;;;;3.72;2.30;;;;;;;27.25;39.82;96693.88;6102027;23;20006;-91
2021/08/12 15:54:43;;;;;;;3.42;2.47;;;;;;;27.63;38.66;96667.88;6101894;23;20002;-91
2021/08/12 15:57:10;;;;;;;3.88;2.78;;;;;;;27.96;36.74;96706.97;6105953;23;20009;-92
2021/08/12 15:59:36;;;;;;;5.53;2.70;;;;;;;27.90;38.82;96690.44;6101716;23;20010;-92
2021/08/12 16:02:01;;;;;;;3.30;2.38;;;;;;;28.27;35.54;96721.47;6103901;23;20055;-91
2021/08/12 16:04:26;;;;;;;7.43;2.50;;;;;;;27.58;39.67;96705.81;6102475;23;20431;-94
2021/08/12 16:06:52;;;;;;;3.83;2.83;;;;;;;27.08;37.57;96716.03;6103363;23;19998;-92
2021/08/12 16:09:17;;;;;;;4.40;2.28;;;;;;;26.57;40.65;96689.16;6102206;23;20427;-92
2021/08/12 16:11:43;;;;;;;3.90;2.60;;;;;;;26.23;39.45;96690.25;6102345;23;20093;-92
2021/08/12 16:14:08;;;;;;;7.38;2.92;;;;;;;26.30;43.02;96724.94;6127349;23;20009;-93
2021/08/12 16:16:35;;;;;;;7.22;2.90;;;;;;;26.46;40.08;96698.63;6102242;23;20013;-92
2021/08/12 16:19:04;;;;;;;9.02;2.90;;;;;;;26.71;38.96;96707.16;6102431;23;20069;-94
2021/08/12 16:21:31;;;;;;;7.43;2.75;;;;;;;26.94;40.90;96714.75;6103285;23;20001;-94
2021/08/12 16:26:35;;;;;;;3.38;2.85;;;;;;;25.86;40.06;96652.75;6145749;23;20088;-96
2021/08/12 16:29:00;;;;;;;4.88;2.70;;;;;;;25.47;40.18;96651.91;6109242;23;20013;-96
2021/08/12 16:31:29;;;;;;;3.92;2.67;;;;;;;25.08;42.69;96637.09;6103593;23;20040;-95
2021/08/12 16:33:55;;;;;;;4.23;2.53;;;;;;;24.85;42.00;96649.38;6104492;23;20427;-96
2021/08/12 16:36:20;;;;;;;5.03;2.70;;;;;;;24.65;44.27;96665.53;6102474;23;20085;-96
2021/08/12 16:38:46;;;;;;;3.63;2.45;;;;;;;24.71;43.17;96701.47;6102456;23;20013;-94
2021/08/12 16:41:11;;;;;;;4.35;2.83;;;;;;;24.42;42.97;96693.13;6103251;23;20074;-93
2021/08/12 16:43:37;;;;;;;3.15;2.83;;;;;;;24.19;42.80;96686.63;6103470;23;20064;-94
2021/08/12 16:46:03;;;;;;;3.92;2.80;;;;;;;24.10;44.23;96709.28;6109885;23;20300;-95
2021/08/12 16:48:29;;;;;;;12.57;3.05;;;;;;;23.95;47.20;96716.16;6105527;23;20475;-93
2021/08/12 16:50:56;;;;;;;4.30;2.70;;;;;;;23.71;45.82;96697.81;6105000;23;20013;-94
2021/08/12 16:53:22;;;;;;;5.63;2.75;;;;;;;23.65;45.47;96711.06;6104466;23;20002;-95
2021/08/12 16:55:48;;;;;;;4.03;3.03;;;;;;;23.35;46.58;96688.50;6104633;23;20009;-95
2021/08/12 16:58:13;;;;;;;4.80;3.05;;;;;;;22.91;49.27;96643.84;6104420;23;20435;-94
2021/08/12 17:00:39;;;;;;;4.65;3.15;;;;;;;23.26;49.20;96714.63;6104112;23;20430;-95
2021/08/12 17:03:05;;;;;;;4.95;2.70;;;;;;;22.88;50.65;96703.75;6105430;23;20013;-94
2021/08/12 17:05:30;;;;;;;6.53;3.35;;;;;;;22.83;53.33;96712.16;6109985;23;20029;-96
2021/08/12 17:07:56;;;;;;;4.60;3.30;;;;;;;22.79;53.94;96720.03;6105967;23;20016;-95
2021/08/12 17:10:21;;;;;;;4.40;3.20;;;;;;;22.43;50.99;96693.47;6104855;23;20009;-95
2021/08/12 17:12:47;;;;;;;6.05;3.22;;;;;;;22.42;52.39;96705.06;6104153;23;20002;-95
2021/08/12 17:15:12;;;;;;;27.33;4.53;;;;;;;22.39;54.49;96715.19;6103559;23;20005;-95
2021/08/12 17:17:38;;;;;;;7.90;3.50;;;;;;;22.24;57.29;96717.69;6104823;23;20312;-95
2021/08/12 17:20:05;;;;;;;23.95;4.47;;;;;;;22.09;55.61;96707.06;6103535;23;20014;-96
2021/08/12 17:22:30;;;;;;;6.80;3.63;;;;;;;21.86;54.17;96703.91;6104996;23;20041;-95
2021/08/12 17:24:56;;;;;;;7.35;3.92;;;;;;;21.87;54.85;96718.47;6103450;23;20010;-95
2021/08/12 17:27:21;;;;;;;10.45;4.13;;;;;;;21.79;57.09;96704.53;6098118;23;20022;-94
2021/08/12 17:29:47;;;;;;;5.47;4.22;;;;;;;21.62;55.54;96706.75;6098570;23;20046;-95
2021/08/12 17:32:12;;;;;;;8.07;4.30;;;;;;;21.60;55.07;96712.06;6098162;23;20011;-94
2021/08/12 17:34:38;;;;;;;10.20;4.70;;;;;;;21.73;57.81;96723.19;6097780;23;20309;-95
2021/08/12 17:37:04;;;;;;;12.65;4.47;;;;;;;21.43;57.45;96688.19;6098353;23;19998;-95
2021/08/12 17:39:29;;;;;;;9.50;4.10;;;;;;;21.29;58.62;96683.81;6098245;23;20025;-95